createdAt,value
2022-12-03T00:01:51.931Z,2.05
2022-12-03T00:04:18.354Z,2.03
2022-12-03T00:06:44.870Z,2.07
2022-12-03T00:09:11.286Z,2.04
2022-12-03T00:11:37.721Z,2.06
2022-12-03T00:14:04.246Z,2.07
2022-12-03T00:16:30.872Z,2.07
2022-12-03T00:18:57.434Z,2.08
2022-12-03T00:21:24.857Z,2.10
2022-12-03T00:23:51.689Z,2.05
2022-12-03T00:26:18.102Z,2.06
2022-12-03T00:28:44.656Z,2.05
2022-12-03T00:31:11.089Z,2.07
2022-12-03T00:33:37.538Z,2.04
2022-12-03T00:36:04.177Z,2.03
2022-12-03T00:38:30.577Z,2.08
2022-12-03T00:40:57.023Z,2.05
2022-12-03T00:43:23.500Z,2.06
2022-12-03T00:45:49.997Z,2.10
2022-12-03T00:48:16.589Z,2.12
2022-12-03T00:50:43.015Z,2.06
2022-12-03T00:53:09.467Z,2.10
2022-12-03T00:55:35.911Z,2.08
2022-12-03T00:58:02.383Z,2.06
2022-12-03T01:00:28.779Z,2.08
2022-12-03T01:02:55.236Z,2.06
2022-12-03T01:05:21.744Z,2.06
2022-12-03T01:07:48.207Z,2.08
2022-12-03T01:10:15.268Z,2.08
2022-12-03T01:12:41.703Z,2.05
2022-12-03T01:15:08.874Z,2.04
2022-12-03T01:17:35.286Z,2.05
2022-12-03T01:20:02.056Z,2.05
2022-12-03T01:22:28.736Z,2.03
2022-12-03T01:24:55.548Z,2.06
2022-12-03T01:27:22.132Z,2.08
2022-12-03T01:29:48.597Z,2.07
2022-12-03T01:32:17.995Z,2.07
2022-12-03T01:34:54.884Z,2.05
2022-12-03T01:37:24.794Z,2.12
2022-12-03T01:39:52.050Z,2.13
2022-12-03T01:42:31.932Z,2.11
2022-12-03T01:45:00.291Z,2.07
2022-12-03T01:47:30.872Z,2.08
2022-12-03T01:50:05.432Z,2.07
2022-12-03T01:52:36.431Z,2.09
2022-12-03T01:55:07.473Z,2.13
2022-12-03T01:57:41.043Z,2.12
2022-12-03T02:00:13.429Z,2.12
2022-12-03T02:02:39.902Z,2.16
2022-12-03T02:05:15.015Z,2.15
2022-12-03T02:07:41.540Z,2.16
2022-12-03T02:10:08.285Z,2.12
2022-12-03T02:12:48.864Z,2.09
2022-12-03T02:15:15.625Z,2.12
2022-12-03T02:17:42.788Z,2.06
2022-12-03T02:20:10.642Z,2.08
2022-12-03T02:22:51.805Z,2.10
2022-12-03T02:25:22.232Z,2.08
2022-12-03T02:27:49.537Z,2.09
2022-12-03T02:30:19.292Z,2.08
2022-12-03T02:32:46.747Z,2.08
2022-12-03T02:35:15.933Z,2.09
2022-12-03T02:37:44.113Z,2.07
2022-12-03T02:40:15.122Z,2.07
2022-12-03T02:42:42.762Z,2.08
2022-12-03T02:45:14.357Z,2.09
2022-12-03T02:47:52.591Z,2.12
2022-12-03T02:50:23.591Z,2.12
2022-12-03T02:52:53.887Z,2.12
2022-12-03T02:55:20.962Z,2.12
2022-12-03T02:57:49.983Z,2.13
2022-12-03T03:00:17.976Z,2.09
2022-12-03T03:02:46.661Z,2.11
2022-12-03T03:05:15.207Z,2.05
2022-12-03T03:07:42.599Z,2.08
2022-12-03T03:10:12.677Z,2.08
2022-12-03T03:12:39.591Z,2.11
2022-12-03T03:15:07.618Z,2.06
2022-12-03T03:17:34.172Z,2.02
2022-12-03T03:20:00.949Z,2.05
2022-12-03T03:22:35.571Z,1.99
2022-12-03T03:25:02.425Z,1.99
2022-12-03T03:27:29.633Z,2.02
2022-12-03T03:29:58.277Z,2.08
2022-12-03T03:32:26.568Z,2.10
2022-12-03T03:34:53.560Z,2.04
2022-12-03T03:37:20.222Z,1.97
2022-12-03T03:39:46.827Z,1.96
2022-12-03T03:42:13.462Z,1.99
2022-12-03T03:44:40.336Z,2.00
2022-12-03T03:47:07.091Z,1.98
2022-12-03T03:49:33.848Z,1.94
2022-12-03T03:52:00.356Z,1.93
2022-12-03T03:54:26.984Z,1.98
2022-12-03T03:56:53.543Z,2.02
2022-12-03T03:59:20.023Z,2.03
2022-12-03T04:01:46.995Z,1.97
2022-12-03T04:04:23.016Z,1.94
2022-12-03T04:06:49.715Z,1.90
2022-12-03T04:09:16.233Z,1.91
2022-12-03T04:12:01.057Z,1.94
2022-12-03T04:14:27.528Z,1.92
2022-12-03T04:16:54.065Z,1.92
2022-12-03T04:19:20.530Z,1.95
2022-12-03T04:22:05.187Z,1.91
2022-12-03T04:24:31.639Z,1.91
2022-12-03T04:27:16.762Z,1.90
2022-12-03T04:29:43.161Z,1.86
2022-12-03T04:32:28.228Z,1.85
2022-12-03T04:35:13.248Z,1.85
2022-12-03T04:37:39.708Z,1.83
2022-12-03T04:40:26.801Z,1.83
2022-12-03T04:42:53.227Z,1.82
2022-12-03T04:45:19.674Z,1.82
2022-12-03T04:47:46.086Z,1.81
2022-12-03T04:50:12.595Z,1.77
2022-12-03T04:52:39.122Z,1.77
2022-12-03T04:55:06.098Z,1.77
2022-12-03T04:57:32.895Z,1.81
2022-12-03T04:59:59.440Z,1.78
2022-12-03T05:02:26.114Z,1.80
2022-12-03T05:04:53.060Z,1.79
2022-12-03T05:07:19.753Z,1.77
2022-12-03T05:09:46.367Z,1.77
2022-12-03T05:12:12.897Z,1.79
2022-12-03T05:14:39.531Z,1.77
2022-12-03T05:17:06.135Z,1.77
2022-12-03T05:19:51.310Z,1.80
2022-12-03T05:22:17.735Z,1.78
2022-12-03T05:24:44.229Z,1.80
2022-12-03T05:27:10.642Z,1.73
2022-12-03T05:29:37.032Z,1.78
2022-12-03T05:32:03.518Z,1.75
2022-12-03T05:34:29.987Z,1.76
2022-12-03T05:36:56.413Z,1.76
2022-12-03T05:39:22.806Z,1.75
2022-12-03T05:42:07.839Z,1.73
2022-12-03T05:44:34.287Z,1.76
2022-12-03T05:47:00.686Z,1.76
2022-12-03T05:49:27.148Z,1.75
2022-12-03T05:51:58.233Z,1.70
2022-12-03T05:54:25.185Z,1.71
2022-12-03T05:56:51.645Z,1.73
2022-12-03T05:59:18.128Z,1.69
2022-12-03T06:01:44.560Z,1.73
2022-12-03T06:04:11.002Z,1.76
2022-12-03T06:06:37.432Z,1.77
2022-12-03T06:09:04.562Z,1.73
2022-12-03T06:11:34.041Z,1.74
2022-12-03T06:14:01.041Z,1.73
2022-12-03T06:16:27.498Z,1.72
2022-12-03T06:18:53.988Z,1.70
2022-12-03T06:21:20.415Z,1.70
2022-12-03T06:23:46.791Z,1.72
2022-12-03T06:26:14.723Z,1.71
2022-12-03T06:28:46.213Z,1.69
2022-12-03T06:31:14.977Z,1.68
2022-12-03T06:33:41.401Z,1.65
2022-12-03T06:36:08.874Z,1.63
2022-12-03T06:38:35.295Z,1.60
2022-12-03T06:41:01.705Z,1.56
2022-12-03T06:43:28.084Z,1.55
2022-12-03T06:45:54.566Z,1.49
2022-12-03T06:48:20.981Z,1.49
2022-12-03T06:50:47.434Z,1.45
2022-12-03T06:53:13.936Z,1.42
2022-12-03T06:55:40.383Z,1.41
2022-12-03T06:58:06.859Z,1.43
2022-12-03T07:00:33.367Z,1.38
2022-12-03T07:02:59.888Z,1.36
2022-12-03T07:05:26.321Z,1.36
2022-12-03T07:07:55.249Z,1.35
2022-12-03T07:10:22.391Z,1.34
2022-12-03T07:12:48.770Z,1.33
2022-12-03T07:15:15.252Z,1.32
2022-12-03T07:17:41.671Z,1.31
2022-12-03T07:20:08.939Z,1.32
2022-12-03T07:22:35.444Z,1.31
2022-12-03T07:25:02.016Z,1.30
2022-12-03T07:27:31.329Z,1.27
2022-12-03T07:29:57.772Z,1.27
2022-12-03T07:32:24.221Z,1.25
2022-12-03T07:34:50.968Z,1.23
2022-12-03T07:37:22.693Z,1.22
2022-12-03T07:39:49.950Z,1.21
2022-12-03T07:42:16.453Z,1.19
2022-12-03T07:44:42.857Z,1.20
2022-12-03T07:47:09.383Z,1.20
2022-12-03T07:49:35.882Z,1.22
2022-12-03T07:52:02.358Z,1.19
2022-12-03T07:54:28.896Z,1.16
2022-12-03T07:57:00.984Z,1.16
2022-12-03T07:59:28.931Z,1.12
2022-12-03T08:01:55.437Z,1.13
2022-12-03T08:04:22.355Z,1.15
2022-12-03T08:06:49.115Z,1.18
2022-12-03T08:09:16.305Z,1.18
2022-12-03T08:11:45.534Z,1.20
2022-12-03T08:14:15.014Z,1.25
2022-12-03T08:16:43.191Z,1.28
2022-12-03T08:19:18.022Z,1.25
2022-12-03T08:21:45.028Z,1.28
2022-12-03T08:24:15.816Z,1.31
2022-12-03T08:26:44.325Z,1.36
2022-12-03T08:29:14.548Z,1.41
2022-12-03T08:31:41.805Z,1.42
2022-12-03T08:34:24.162Z,1.41
2022-12-03T08:36:56.002Z,1.45
2022-12-03T08:39:33.921Z,1.44
2022-12-03T08:42:32.365Z,1.41
2022-12-03T08:45:29.694Z,1.39
2022-12-03T08:48:13.091Z,1.39
2022-12-03T08:50:41.376Z,1.42
2022-12-03T08:53:13.899Z,1.41
2022-12-03T08:55:48.035Z,1.46
2022-12-03T08:58:34.362Z,1.47
2022-12-03T09:01:12.895Z,1.51
2022-12-03T09:03:47.560Z,1.54
2022-12-03T09:06:14.073Z,1.55
2022-12-03T09:08:40.491Z,1.57
2022-12-03T09:11:07.041Z,1.61
2022-12-03T09:13:33.497Z,1.67
2022-12-03T09:15:59.914Z,1.72
2022-12-03T09:18:26.361Z,1.77
2022-12-03T09:20:52.853Z,1.76
2022-12-03T09:23:19.316Z,1.80
2022-12-03T09:25:45.750Z,1.79
2022-12-03T09:28:12.162Z,1.75
2022-12-03T09:30:38.873Z,1.77
2022-12-03T09:33:05.463Z,1.80
2022-12-03T09:35:31.920Z,1.84
2022-12-03T09:37:58.378Z,1.90
2022-12-03T09:40:24.972Z,1.96
2022-12-03T09:42:51.911Z,2.01
2022-12-03T09:45:18.491Z,2.05
2022-12-03T09:47:48.232Z,1.99
2022-12-03T09:50:21.448Z,2.02
2022-12-03T09:52:49.961Z,2.09
2022-12-03T09:55:24.182Z,2.11
2022-12-03T09:57:54.827Z,2.17
2022-12-03T10:00:27.489Z,2.14
2022-12-03T10:02:57.550Z,2.15
2022-12-03T10:05:24.874Z,2.14
2022-12-03T10:07:52.393Z,2.13
2022-12-03T10:10:22.369Z,2.11
2022-12-03T10:12:50.253Z,2.10
2022-12-03T10:15:19.363Z,2.12
2022-12-03T10:17:47.723Z,2.11
2022-12-03T10:20:18.080Z,2.14
2022-12-03T10:22:45.153Z,2.14
2022-12-03T10:25:14.674Z,2.23
2022-12-03T10:27:41.943Z,2.21
2022-12-03T10:30:19.869Z,2.21
2022-12-03T10:32:51.237Z,2.17
2022-12-03T10:35:38.900Z,2.20
2022-12-03T10:38:18.491Z,2.24
2022-12-03T10:40:46.096Z,2.27
2022-12-03T10:43:12.471Z,2.25
2022-12-03T10:45:38.925Z,2.26
2022-12-03T10:48:12.787Z,2.32
2022-12-03T10:51:06.928Z,2.38
2022-12-03T10:53:35.588Z,2.46
2022-12-03T10:56:05.711Z,2.56
2022-12-03T10:58:35.991Z,2.59
2022-12-03T11:01:13.501Z,2.58
2022-12-03T11:03:40.143Z,2.56
2022-12-03T11:06:06.857Z,2.59
2022-12-03T11:08:37.300Z,2.59
2022-12-03T11:11:15.765Z,2.62
2022-12-03T11:13:44.786Z,2.61
2022-12-03T11:16:11.372Z,2.64
2022-12-03T11:18:37.799Z,2.65
2022-12-03T11:21:12.809Z,2.64
2022-12-03T11:23:45.271Z,2.67
2022-12-03T11:26:18.961Z,2.71
2022-12-03T11:28:45.874Z,2.71
2022-12-03T11:31:38.942Z,2.69
2022-12-03T11:34:39.495Z,2.56
2022-12-03T11:37:12.018Z,2.57
2022-12-03T11:39:44.665Z,2.57
2022-12-03T11:42:26.308Z,2.60
2022-12-03T11:45:10.917Z,2.54
2022-12-03T11:47:46.822Z,2.51
2022-12-03T11:50:39.796Z,2.51
2022-12-03T11:53:41.689Z,2.54
2022-12-03T11:56:10.918Z,2.57
2022-12-03T11:58:39.987Z,2.55
2022-12-03T12:01:07.953Z,2.55
2022-12-03T12:03:48.276Z,2.55
2022-12-03T12:06:20.742Z,2.52
2022-12-03T12:09:00.146Z,2.53
2022-12-03T12:11:30.872Z,2.53
2022-12-03T12:14:11.366Z,2.58
2022-12-03T12:16:45.760Z,2.59
2022-12-03T12:19:30.676Z,2.66
2022-12-03T12:22:28.395Z,2.64
2022-12-03T12:25:00.307Z,2.66
2022-12-03T12:27:45.564Z,2.65
2022-12-03T12:30:17.245Z,2.66
2022-12-03T12:32:52.383Z,2.65
2022-12-03T12:35:24.640Z,2.61
2022-12-03T12:37:59.838Z,2.58
2022-12-03T12:40:30.625Z,2.55
2022-12-03T12:43:13.535Z,2.55
2022-12-03T12:45:44.337Z,2.62
2022-12-03T12:48:28.756Z,2.66
2022-12-03T12:51:01.244Z,2.59
2022-12-03T12:53:33.248Z,2.59
2022-12-03T12:56:01.589Z,2.63
2022-12-03T12:58:32.001Z,2.61
2022-12-03T13:01:07.479Z,2.62
2022-12-03T13:03:37.063Z,2.59
2022-12-03T13:06:03.843Z,2.55
2022-12-03T13:08:32.273Z,2.57
2022-12-03T13:11:00.144Z,2.58
2022-12-03T13:13:43.285Z,2.63
2022-12-03T13:16:19.661Z,2.57
2022-12-03T13:18:56.404Z,2.56
2022-12-03T13:21:46.033Z,2.59
2022-12-03T13:24:31.606Z,2.60
2022-12-03T13:27:00.326Z,2.60
2022-12-03T13:29:28.075Z,2.64
2022-12-03T13:32:09.435Z,2.56
2022-12-03T13:34:36.002Z,2.55
2022-12-03T13:37:07.252Z,2.54
2022-12-03T13:39:37.787Z,2.51
2022-12-03T13:42:33.989Z,2.52
2022-12-03T13:45:02.607Z,2.55
2022-12-03T13:47:29.047Z,2.56
2022-12-03T13:49:57.852Z,2.47
2022-12-03T13:52:25.809Z,2.50
2022-12-03T13:54:55.106Z,2.49
2022-12-03T13:57:21.926Z,2.47
2022-12-03T13:59:48.650Z,2.52
2022-12-03T14:02:15.314Z,2.51
2022-12-03T14:04:41.871Z,2.52
2022-12-03T14:07:08.401Z,2.53
2022-12-03T14:09:35.043Z,2.49
2022-12-03T14:12:20.238Z,2.41
2022-12-03T14:14:46.708Z,2.37
2022-12-03T14:17:13.267Z,2.41
2022-12-03T14:19:39.984Z,2.45
2022-12-03T14:22:08.035Z,2.42
2022-12-03T14:24:34.547Z,2.41
2022-12-03T14:27:01.289Z,2.43
2022-12-03T14:29:28.532Z,2.41
2022-12-03T14:31:55.379Z,2.38
2022-12-03T14:34:21.859Z,2.39
2022-12-03T14:36:48.406Z,2.42
2022-12-03T14:39:14.854Z,2.42
2022-12-03T14:42:00.081Z,2.41
2022-12-03T14:44:26.517Z,2.41
2022-12-03T14:46:57.039Z,2.35
2022-12-03T14:49:24.177Z,2.34
2022-12-03T14:51:50.687Z,2.35
2022-12-03T14:54:17.189Z,2.35
2022-12-03T14:56:43.619Z,2.34
2022-12-03T14:59:10.065Z,2.36
2022-12-03T15:01:36.733Z,2.37
2022-12-03T15:04:03.594Z,2.33
2022-12-03T15:06:30.093Z,2.30
2022-12-03T15:08:56.725Z,2.30
2022-12-03T15:11:23.249Z,2.32
2022-12-03T15:13:49.807Z,2.30
2022-12-03T15:16:16.469Z,2.32
2022-12-03T15:18:42.970Z,2.26
2022-12-03T15:21:09.631Z,2.27
2022-12-03T15:23:36.059Z,2.30
2022-12-03T15:26:03.176Z,2.35
2022-12-03T15:28:30.008Z,2.26
2022-12-03T15:30:56.527Z,2.28
2022-12-03T15:33:23.078Z,2.26
2022-12-03T15:35:52.356Z,2.27
2022-12-03T15:38:19.439Z,2.26
2022-12-03T15:40:46.107Z,2.26
2022-12-03T15:43:12.827Z,2.25
2022-12-03T15:45:39.294Z,2.26
2022-12-03T15:48:06.182Z,2.21
2022-12-03T15:50:38.466Z,2.19
2022-12-03T15:53:06.498Z,2.19
2022-12-03T15:55:32.958Z,2.21
2022-12-03T15:57:59.525Z,2.16
2022-12-03T16:00:25.968Z,2.13
2022-12-03T16:02:53.119Z,2.18
2022-12-03T16:05:20.295Z,2.18
2022-12-03T16:07:46.848Z,2.17
2022-12-03T16:10:13.615Z,2.18
2022-12-03T16:12:40.288Z,2.20
2022-12-03T16:15:07.267Z,2.19
2022-12-03T16:17:34.029Z,2.13
2022-12-03T16:20:00.750Z,2.15
2022-12-03T16:22:27.123Z,2.17
2022-12-03T16:24:53.557Z,2.16
2022-12-03T16:27:24.154Z,2.15
2022-12-03T16:29:52.544Z,2.11
2022-12-03T16:32:19.259Z,2.09
2022-12-03T16:34:45.700Z,2.05
2022-12-03T16:37:12.338Z,2.11
2022-12-03T16:39:39.184Z,2.11
2022-12-03T16:42:09.020Z,2.08
2022-12-03T16:44:59.242Z,2.09
2022-12-03T16:47:30.607Z,2.06
2022-12-03T16:50:00.380Z,2.05
2022-12-03T16:52:26.782Z,2.07
2022-12-03T16:54:53.243Z,2.01
2022-12-03T16:57:19.755Z,2.06
2022-12-03T16:59:46.183Z,2.08
2022-12-03T17:02:13.058Z,2.07
2022-12-03T17:04:39.686Z,2.05
2022-12-03T17:07:06.152Z,2.05
2022-12-03T17:09:32.697Z,2.01
2022-12-03T17:11:59.160Z,1.99
2022-12-03T17:14:31.485Z,2.02
2022-12-03T17:16:59.611Z,2.02
2022-12-03T17:19:26.250Z,1.99
2022-12-03T17:21:54.109Z,1.96
2022-12-03T17:24:21.364Z,1.98
2022-12-03T17:26:48.197Z,2.04
2022-12-03T17:29:14.803Z,2.03
2022-12-03T17:31:42.464Z,1.96
2022-12-03T17:34:09.877Z,1.97
2022-12-03T17:36:36.377Z,1.96
2022-12-03T17:39:02.902Z,1.98
2022-12-03T17:41:29.360Z,1.98
2022-12-03T17:43:55.833Z,1.96
2022-12-03T17:46:22.348Z,1.92
2022-12-03T17:48:48.794Z,1.92
2022-12-03T17:51:15.696Z,1.91
2022-12-03T17:53:42.108Z,1.96
2022-12-03T17:56:08.937Z,1.96
2022-12-03T17:58:35.344Z,1.95
2022-12-03T18:01:03.030Z,1.96
2022-12-03T18:03:30.708Z,1.93
2022-12-03T18:05:57.215Z,1.95
2022-12-03T18:08:23.723Z,1.91
2022-12-03T18:10:50.385Z,1.94
2022-12-03T18:13:16.904Z,1.96
2022-12-03T18:15:43.583Z,1.92
2022-12-03T18:18:10.742Z,1.89
2022-12-03T18:20:37.753Z,1.89
2022-12-03T18:23:04.352Z,1.88
2022-12-03T18:25:30.913Z,1.85
2022-12-03T18:27:57.601Z,1.81
2022-12-03T18:30:24.218Z,1.82
2022-12-03T18:32:50.869Z,1.80
2022-12-03T18:35:18.003Z,1.81
2022-12-03T18:37:44.680Z,1.82
2022-12-03T18:40:18.547Z,1.83
2022-12-03T18:42:44.941Z,1.85
2022-12-03T18:45:13.061Z,1.88
2022-12-03T18:47:39.658Z,1.88
2022-12-03T18:50:07.442Z,1.86
2022-12-03T18:52:33.896Z,1.82
2022-12-03T18:55:00.330Z,1.82
2022-12-03T18:57:26.811Z,1.84
2022-12-03T18:59:53.514Z,1.83
2022-12-03T19:05:08.147Z,1.80
2022-12-03T19:07:34.828Z,1.79
2022-12-03T19:10:01.303Z,1.79
2022-12-03T19:12:27.741Z,1.82
2022-12-03T19:14:54.171Z,1.83
2022-12-03T19:17:21.469Z,1.87
2022-12-03T19:19:47.962Z,1.85
2022-12-03T19:22:14.399Z,1.85
2022-12-03T19:24:40.864Z,1.85
2022-12-03T19:27:07.356Z,1.85
2022-12-03T19:29:33.874Z,1.83
2022-12-03T19:32:00.436Z,1.80
2022-12-03T19:34:27.250Z,1.83
2022-12-03T19:36:53.705Z,1.80
2022-12-03T19:39:20.216Z,1.76
2022-12-03T19:41:46.743Z,1.77
2022-12-03T19:44:14.535Z,1.77
2022-12-03T19:46:41.911Z,1.76
2022-12-03T19:49:09.180Z,1.80
2022-12-03T19:51:36.354Z,1.78
2022-12-03T19:54:05.184Z,1.76
2022-12-03T19:56:31.696Z,1.76
2022-12-03T19:58:58.311Z,1.78
2022-12-03T20:01:33.871Z,1.76
2022-12-03T20:04:02.277Z,1.80
2022-12-03T20:06:32.811Z,1.79
2022-12-03T20:09:01.685Z,1.77
2022-12-03T20:11:30.953Z,1.76
2022-12-03T20:14:00.417Z,1.75
2022-12-03T20:16:28.248Z,1.73
2022-12-03T20:19:06.450Z,1.75
2022-12-03T20:21:36.327Z,1.75
2022-12-03T20:24:04.487Z,1.79
2022-12-03T20:26:31.124Z,1.77
2022-12-03T20:28:58.016Z,1.75
2022-12-03T20:31:27.583Z,1.77
2022-12-03T20:33:57.315Z,1.78
2022-12-03T20:36:24.383Z,1.76
2022-12-03T20:38:58.891Z,1.77
2022-12-03T20:41:26.105Z,1.74
2022-12-03T20:43:53.648Z,1.76
2022-12-03T20:46:25.899Z,1.75
2022-12-03T20:48:53.948Z,1.74
2022-12-03T20:51:22.726Z,1.73
2022-12-03T20:53:49.830Z,1.73
2022-12-03T20:56:22.190Z,1.73
2022-12-03T20:58:50.020Z,1.73
2022-12-03T21:01:19.609Z,1.72
2022-12-03T21:03:47.020Z,1.71
2022-12-03T21:06:14.177Z,1.69
2022-12-03T21:08:42.626Z,1.70
2022-12-03T21:11:22.875Z,1.70
2022-12-03T21:13:49.509Z,1.72
2022-12-03T21:16:19.320Z,1.69
2022-12-03T21:18:46.291Z,1.69
2022-12-03T21:21:14.759Z,1.71
2022-12-03T21:23:41.755Z,1.73
2022-12-03T21:26:18.140Z,1.75
2022-12-03T21:28:46.452Z,1.77
2022-12-03T21:31:15.492Z,1.70
2022-12-03T21:33:42.412Z,1.71
2022-12-03T21:36:09.567Z,1.73
2022-12-03T21:38:37.413Z,1.76
2022-12-03T21:41:04.976Z,1.74
2022-12-03T21:43:32.523Z,1.75
2022-12-03T21:45:58.949Z,1.72
2022-12-03T21:48:25.645Z,1.76
2022-12-03T21:51:09.416Z,1.79
2022-12-03T21:53:43.168Z,1.73
2022-12-03T21:56:12.461Z,1.72
2022-12-03T21:58:39.915Z,1.74
2022-12-03T22:01:15.788Z,1.69
2022-12-03T22:03:42.874Z,1.70
2022-12-03T22:06:10.039Z,1.75
2022-12-03T22:08:36.967Z,1.70
2022-12-03T22:11:11.648Z,1.70
2022-12-03T22:13:38.974Z,1.72
2022-12-03T22:16:14.767Z,1.71
2022-12-03T22:18:41.417Z,1.67
2022-12-03T22:21:13.259Z,1.66
2022-12-03T22:23:40.486Z,1.67
2022-12-03T22:26:09.289Z,1.67
2022-12-03T22:28:35.775Z,1.69
2022-12-03T22:31:08.672Z,1.67
2022-12-03T22:33:36.457Z,1.67
2022-12-03T22:36:07.044Z,1.64
2022-12-03T22:38:34.294Z,1.67
2022-12-03T22:41:05.177Z,1.66
2022-12-03T22:43:31.741Z,1.65
2022-12-03T22:45:58.189Z,1.66
2022-12-03T22:48:24.631Z,1.66
2022-12-03T22:50:52.445Z,1.64
2022-12-03T22:53:19.981Z,1.64
2022-12-03T22:55:55.096Z,1.66
2022-12-03T22:58:22.478Z,1.65
2022-12-03T23:00:49.457Z,1.66
2022-12-03T23:03:16.110Z,1.65
2022-12-03T23:05:42.691Z,1.63
2022-12-03T23:08:13.201Z,1.63
2022-12-03T23:10:42.674Z,1.63
2022-12-03T23:13:10.179Z,1.61
2022-12-03T23:15:37.107Z,1.64
2022-12-03T23:18:04.029Z,1.65
2022-12-03T23:20:30.486Z,1.66
2022-12-03T23:22:57.109Z,1.71
2022-12-03T23:25:23.901Z,1.68
2022-12-03T23:27:50.452Z,1.64
2022-12-03T23:30:17.187Z,1.66
2022-12-03T23:32:46.409Z,1.65
2022-12-03T23:35:12.979Z,1.67
2022-12-03T23:37:43.349Z,1.67
2022-12-03T23:40:10.824Z,1.69
2022-12-03T23:42:37.309Z,1.66
2022-12-03T23:45:04.142Z,1.66
2022-12-03T23:47:30.754Z,1.65
2022-12-03T23:49:57.448Z,1.68
2022-12-03T23:52:24.399Z,1.67
2022-12-03T23:54:50.823Z,1.69
2022-12-03T23:57:18.285Z,1.63
2022-12-03T23:59:44.760Z,1.63
